Time;durP1;ratioP1;P1;durP2;ratioP2;P2;SDS_P1;SDS_P2;PMS_P1;PMS_P2;Temp;Humidity;BMP_temperature;BMP_pressure;BME280_temperature;BME280_humidity;BME280_pressure;Samples;Min_cycle;Max_cycle;Signal;HPM_P1;HPM_P2
2022/08/19 00:01:13;;;;;;;;;;;25.30;85.50;;;;;;5073314;28;20011;-61
2022/08/19 00:03:39;;;;;;;;;;;25.20;85.60;;;;;;5072513;28;19924;-61
2022/08/19 00:06:04;;;;;;;;;;;25.50;85.60;;;;;;5071752;28;19924;-61
2022/08/19 00:08:31;;;;;;;;;;;25.20;85.30;;;;;;5071035;28;20447;-61
2022/08/19 00:10:57;;;;;;;;;;;25.50;85.20;;;;;;5072370;28;20073;-60
2022/08/19 00:13:23;;;;;;;;;;;25.20;85.50;;;;;;5074111;28;20374;-61
2022/08/19 00:15:48;;;;;;;;;;;25.30;85.20;;;;;;5073117;28;19930;-61
2022/08/19 00:18:14;;;;;;;;;;;25.30;85.60;;;;;;5072786;28;19947;-62
2022/08/19 00:20:40;;;;;;;;;;;25.40;85.40;;;;;;5071999;28;19924;-61
2022/08/19 00:23:06;;;;;;;;;;;25.70;85.70;;;;;;5074246;28;19924;-61
2022/08/19 00:25:31;;;;;;;;;;;25.30;85.60;;;;;;5053377;28;20340;-61
2022/08/19 00:27:58;;;;;;;;;;;25.80;85.60;;;;;;5072923;28;19978;-61
2022/08/19 00:30:24;;;;;;;;;;;25.40;85.40;;;;;;5071980;28;19931;-61
2022/08/19 00:32:50;;;;;;;;;;;25.60;85.60;;;;;;5072581;28;20010;-61
2022/08/19 00:35:17;;;;;;;;;;;25.40;85.20;;;;;;5072094;28;19979;-62
2022/08/19 00:37:43;;;;;;;;;;;25.30;85.30;;;;;;5073381;28;20394;-60
2022/08/19 00:40:09;;;;;;;;;;;25.40;85.30;;;;;;5071828;28;19928;-61
2022/08/19 00:42:35;;;;;;;;;;;25.30;85.10;;;;;;5054737;28;19928;-61
2022/08/19 00:45:00;;;;;;;;;;;25.70;85.10;;;;;;5073038;28;19928;-61
2022/08/19 00:47:26;;;;;;;;;;;25.30;85.40;;;;;;5072707;28;20037;-62
2022/08/19 00:49:53;;;;;;;;;;;25.50;85.20;;;;;;5072421;28;19932;-60
2022/08/19 00:52:29;;;;;;;;;;;25.60;85.70;;;;;;5072926;28;19932;-61
2022/08/19 00:54:56;;;;;;;;;;;25.30;84.00;;;;;;5071610;28;19924;-60
2022/08/19 00:57:32;;;;;;;;;;;25.40;85.50;;;;;;5072103;28;20378;-60
2022/08/19 00:59:59;;;;;;;;;;;25.40;85.50;;;;;;5071128;28;19924;-60
2022/08/19 01:02:24;;;;;;;;;;;25.20;85.30;;;;;;5070530;28;20035;-60
2022/08/19 01:04:50;;;;;;;;;;;25.40;85.30;;;;;;5072894;28;19974;-60
2022/08/19 01:07:16;;;;;;;;;;;25.30;84.90;;;;;;5071501;28;20023;-61
2022/08/19 01:09:42;;;;;;;;;;;25.40;85.40;;;;;;5069991;28;19928;-61
2022/08/19 01:12:07;;;;;;;;;;;25.30;85.20;;;;;;5072360;28;19966;-60
2022/08/19 01:14:33;;;;;;;;;;;25.20;85.20;;;;;;5070677;28;19928;-60
2022/08/19 01:16:59;;;;;;;;;;;25.40;85.20;;;;;;5065696;28;19924;-61
2022/08/19 01:19:29;;;;;;;;;;;25.30;85.20;;;;;;5068028;28;19924;-61
2022/08/19 01:21:56;;;;;;;;;;;25.20;83.90;;;;;;5068396;28;19925;-61
2022/08/19 01:24:22;;;;;;;;;;;25.70;85.70;;;;;;5052185;28;20329;-60
2022/08/19 01:26:47;;;;;;;;;;;25.20;85.00;;;;;;5052001;28;19978;-61
2022/08/19 01:29:13;;;;;;;;;;;25.20;85.10;;;;;;5051300;28;19931;-61
2022/08/19 01:31:39;;;;;;;;;;;25.60;85.20;;;;;;5052337;28;19932;-61
2022/08/19 01:34:05;;;;;;;;;;;25.50;85.40;;;;;;5050360;28;20007;-61
2022/08/19 01:36:31;;;;;;;;;;;25.50;84.90;;;;;;5052499;28;20480;-61
2022/08/19 01:38:57;;;;;;;;;;;25.20;85.10;;;;;;5052297;28;19924;-61
2022/08/19 01:41:23;;;;;;;;;;;25.50;85.00;;;;;;5052153;28;19932;-61
2022/08/19 01:43:50;;;;;;;;;;;25.40;85.10;;;;;;5053492;28;19925;-61
2022/08/19 01:46:16;;;;;;;;;;;25.20;85.10;;;;;;5050198;28;19932;-61
2022/08/19 01:48:41;;;;;;;;;;;25.40;85.20;;;;;;5052079;28;19925;-61
2022/08/19 01:51:07;;;;;;;;;;;25.00;84.60;;;;;;5050900;28;19960;-61
2022/08/19 01:53:33;;;;;;;;;;;25.60;85.10;;;;;;5050986;28;19972;-62
2022/08/19 01:55:59;;;;;;;;;;;25.10;84.50;;;;;;5051173;28;19928;-61
2022/08/19 01:58:29;;;;;;;;;;;25.30;84.90;;;;;;5053074;28;19925;-61
2022/08/19 02:00:54;;;;;;;;;;;25.40;85.20;;;;;;5065330;28;20329;-61
2022/08/19 02:03:20;;;;;;;;;;;25.40;85.00;;;;;;5051720;28;19928;-61
2022/08/19 02:05:45;;;;;;;;;;;25.40;84.80;;;;;;5048630;28;19929;-61
2022/08/19 02:08:11;;;;;;;;;;;25.30;84.90;;;;;;5053130;28;20259;-61
2022/08/19 02:10:40;;;;;;;;;;;25.30;85.40;;;;;;5055245;28;20370;-61
2022/08/19 02:13:06;;;;;;;;;;;25.30;83.60;;;;;;5056484;28;19935;-61
2022/08/19 02:15:32;;;;;;;;;;;25.40;84.80;;;;;;5055769;28;19925;-61
2022/08/19 02:17:58;;;;;;;;;;;25.30;84.90;;;;;;5066290;28;19924;-61
2022/08/19 02:20:23;;;;;;;;;;;25.40;84.90;;;;;;5074262;28;19924;-61
2022/08/19 02:22:49;;;;;;;;;;;25.30;84.70;;;;;;5075190;28;19932;-61
2022/08/19 02:25:15;;;;;;;;;;;25.40;84.80;;;;;;5074390;28;19927;-60
2022/08/19 02:27:41;;;;;;;;;;;24.80;84.50;;;;;;5075428;28;20029;-61
2022/08/19 02:30:07;;;;;;;;;;;25.30;84.20;;;;;;5075455;28;19928;-61
2022/08/19 02:32:33;;;;;;;;;;;25.30;84.40;;;;;;5072763;28;19924;-61
2022/08/19 02:34:58;;;;;;;;;;;25.20;84.70;;;;;;5072870;28;19928;-61
2022/08/19 02:40:09;;;;;;;;;;;25.10;83.80;;;;;;5072577;28;20394;-61
2022/08/19 02:42:34;;;;;;;;;;;25.00;84.20;;;;;;5076228;28;20018;-60
2022/08/19 02:45:00;;;;;;;;;;;25.00;84.40;;;;;;5073906;28;19935;-61
2022/08/19 02:47:26;;;;;;;;;;;24.90;84.40;;;;;;5057841;28;20402;-60
2022/08/19 02:49:51;;;;;;;;;;;25.30;84.50;;;;;;5075089;28;19924;-61
2022/08/19 02:52:17;;;;;;;;;;;25.50;84.80;;;;;;5074855;28;19924;-61
2022/08/19 02:54:43;;;;;;;;;;;25.40;84.60;;;;;;5073824;28;19975;-62
2022/08/19 02:57:09;;;;;;;;;;;25.40;84.80;;;;;;5075662;28;19924;-61
2022/08/19 02:59:34;;;;;;;;;;;25.20;84.80;;;;;;5074467;28;20286;-61
2022/08/19 03:02:00;;;;;;;;;;;25.20;84.60;;;;;;5072573;28;19933;-61
2022/08/19 03:04:26;;;;;;;;;;;24.80;84.40;;;;;;5074618;28;19924;-61
2022/08/19 03:06:51;;;;;;;;;;;25.10;84.20;;;;;;5073404;28;19925;-60
2022/08/19 03:09:17;;;;;;;;;;;25.20;84.50;;;;;;5074442;28;20370;-61
2022/08/19 03:11:43;;;;;;;;;;;25.40;84.80;;;;;;5074585;28;20027;-61
2022/08/19 03:14:09;;;;;;;;;;;25.10;84.30;;;;;;5074449;28;19991;-61
2022/08/19 03:16:39;;;;;;;;;;;25.00;84.40;;;;;;5073284;28;20405;-62
2022/08/19 03:19:05;;;;;;;;;;;25.10;84.60;;;;;;5053982;28;20286;-60
2022/08/19 03:21:31;;;;;;;;;;;25.10;84.00;;;;;;5073195;28;19925;-61
2022/08/19 03:23:57;;;;;;;;;;;25.10;84.60;;;;;;5074341;28;20336;-61
2022/08/19 03:26:23;;;;;;;;;;;25.10;84.60;;;;;;5056164;28;19978;-61
2022/08/19 03:28:49;;;;;;;;;;;25.20;84.50;;;;;;5073864;28;19929;-61
2022/08/19 03:31:16;;;;;;;;;;;25.10;84.40;;;;;;5055244;28;19931;-61
2022/08/19 03:33:41;;;;;;;;;;;25.30;84.70;;;;;;5055418;28;19924;-61
2022/08/19 03:36:08;;;;;;;;;;;25.00;84.20;;;;;;5074244;28;19986;-61
2022/08/19 03:38:35;;;;;;;;;;;25.20;84.40;;;;;;5072153;28;19924;-61
2022/08/19 03:41:06;;;;;;;;;;;25.00;84.50;;;;;;5072892;28;19936;-61
2022/08/19 03:43:33;;;;;;;;;;;25.00;83.10;;;;;;5074925;28;19993;-61
2022/08/19 03:45:59;;;;;;;;;;;25.10;84.60;;;;;;5073832;28;19932;-60
2022/08/19 03:48:25;;;;;;;;;;;24.90;84.50;;;;;;5073179;28;19980;-60
2022/08/19 03:50:51;;;;;;;;;;;25.00;84.10;;;;;;5073951;28;19982;-61
2022/08/19 03:53:16;;;;;;;;;;;25.10;84.20;;;;;;5072410;28;19925;-61
2022/08/19 03:55:42;;;;;;;;;;;24.90;83.90;;;;;;5073518;28;20057;-61
2022/08/19 03:58:07;;;;;;;;;;;25.00;84.00;;;;;;5073466;28;19936;-61
2022/08/19 04:00:33;;;;;;;;;;;24.90;83.90;;;;;;5073419;28;19925;-61
2022/08/19 04:02:59;;;;;;;;;;;24.90;84.00;;;;;;5073596;28;19924;-62
2022/08/19 04:05:28;;;;;;;;;;;25.00;84.00;;;;;;5072260;28;19964;-62
2022/08/19 04:07:54;;;;;;;;;;;24.90;84.20;;;;;;5073219;28;20015;-61
2022/08/19 04:10:20;;;;;;;;;;;25.00;83.90;;;;;;5071071;28;19932;-60
2022/08/19 04:12:46;;;;;;;;;;;25.00;84.00;;;;;;5072537;28;19928;-67
2022/08/19 04:15:11;;;;;;;;;;;25.00;83.90;;;;;;5073164;28;19924;-61
2022/08/19 04:17:37;;;;;;;;;;;25.00;84.20;;;;;;5072148;28;19925;-60
2022/08/19 04:20:03;;;;;;;;;;;24.90;83.90;;;;;;5073304;28;19949;-61
2022/08/19 04:22:29;;;;;;;;;;;24.80;83.60;;;;;;5053321;28;19932;-61
2022/08/19 04:24:55;;;;;;;;;;;24.90;83.90;;;;;;5073234;28;19924;-60
2022/08/19 04:27:21;;;;;;;;;;;24.90;84.00;;;;;;5070331;28;20449;-61
2022/08/19 04:29:47;;;;;;;;;;;25.00;83.80;;;;;;5072205;28;20015;-60
2022/08/19 04:32:15;;;;;;;;;;;24.80;84.00;;;;;;5072618;28;20344;-61
2022/08/19 04:34:42;;;;;;;;;;;25.10;84.10;;;;;;5073912;28;19928;-61
2022/08/19 04:37:11;;;;;;;;;;;24.90;84.00;;;;;;5054815;28;20377;-61
2022/08/19 04:42:39;;;;;;;;;;;25.00;83.90;;;;;;5072456;28;20286;-61
2022/08/19 04:45:06;;;;;;;;;;;25.00;83.10;;;;;;5074121;28;19925;-62
2022/08/19 04:47:32;;;;;;;;;;;25.10;83.40;;;;;;5071632;28;19931;-61
2022/08/19 04:49:58;;;;;;;;;;;24.80;84.30;;;;;;5072079;28;19924;-61
2022/08/19 04:52:24;;;;;;;;;;;24.90;84.10;;;;;;5071707;28;20011;-61
2022/08/19 04:54:49;;;;;;;;;;;25.10;84.00;;;;;;5073670;28;19932;-63
2022/08/19 04:57:15;;;;;;;;;;;24.70;83.80;;;;;;5071920;28;19932;-61
2022/08/19 04:59:40;;;;;;;;;;;24.50;83.50;;;;;;5072920;28;19925;-61
2022/08/19 05:02:07;;;;;;;;;;;25.10;84.00;;;;;;5054052;28;20286;-61
2022/08/19 05:04:33;;;;;;;;;;;24.80;84.00;;;;;;5073585;28;20027;-61
2022/08/19 05:06:59;;;;;;;;;;;24.90;83.90;;;;;;5072363;28;19925;-61
2022/08/19 05:09:24;;;;;;;;;;;24.90;83.60;;;;;;5071572;28;19955;-61
2022/08/19 05:11:53;;;;;;;;;;;24.90;83.60;;;;;;5071734;28;20378;-61
2022/08/19 05:14:19;;;;;;;;;;;25.00;83.70;;;;;;5071451;28;19947;-61
2022/08/19 05:16:45;;;;;;;;;;;24.60;83.50;;;;;;5071746;28;20017;-61
2022/08/19 05:24:39;;;;;;;;;;;24.90;82.70;;;;;;5073215;28;19976;-61
2022/08/19 05:27:05;;;;;;;;;;;25.00;83.30;;;;;;5072495;28;19975;-61
2022/08/19 05:29:31;;;;;;;;;;;25.30;83.70;;;;;;5072251;28;19986;-61
2022/08/19 05:31:58;;;;;;;;;;;25.20;83.60;;;;;;5070589;28;19976;-61
2022/08/19 05:34:25;;;;;;;;;;;25.10;82.90;;;;;;5070769;28;19924;-62
2022/08/19 05:36:56;;;;;;;;;;;25.30;83.70;;;;;;5071909;28;19975;-61
2022/08/19 05:39:23;;;;;;;;;;;25.20;82.10;;;;;;5071213;28;20066;-62
2022/08/19 05:41:52;;;;;;;;;;;25.40;83.40;;;;;;5072072;28;20019;-60
2022/08/19 05:44:18;;;;;;;;;;;25.40;83.30;;;;;;5072714;28;19972;-62
2022/08/19 05:46:46;;;;;;;;;;;25.40;82.80;;;;;;5075320;28;19924;-61
2022/08/19 05:49:12;;;;;;;;;;;25.50;82.80;;;;;;5075268;28;19932;-61
2022/08/19 05:51:38;;;;;;;;;;;25.50;82.60;;;;;;5075889;28;19925;-61
2022/08/19 05:54:04;;;;;;;;;;;25.70;82.70;;;;;;5054514;28;19927;-61
2022/08/19 05:56:30;;;;;;;;;;;25.90;82.80;;;;;;5058823;28;19925;-61
2022/08/19 05:58:56;;;;;;;;;;;26.00;81.80;;;;;;5074798;28;19928;-61
2022/08/19 06:01:22;;;;;;;;;;;26.00;82.20;;;;;;5074508;28;19932;-62
2022/08/19 06:03:47;;;;;;;;;;;26.10;82.00;;;;;;5075444;28;19924;-60
2022/08/19 06:06:13;;;;;;;;;;;26.30;81.80;;;;;;5073266;28;19920;-63
2022/08/19 06:08:39;;;;;;;;;;;26.40;81.90;;;;;;5074033;28;19932;-61
2022/08/19 06:11:15;;;;;;;;;;;26.20;81.20;;;;;;5072999;28;19925;-61
2022/08/19 06:13:41;;;;;;;;;;;26.60;80.10;;;;;;5073300;28;20007;-61
2022/08/19 06:16:07;;;;;;;;;;;26.70;80.90;;;;;;5074938;28;20019;-63
2022/08/19 06:18:33;;;;;;;;;;;26.90;79.60;;;;;;5048289;28;19975;-61
2022/08/19 06:20:58;;;;;;;;;;;26.80;79.70;;;;;;5061768;28;19928;-62
2022/08/19 06:23:25;;;;;;;;;;;26.70;79.60;;;;;;5058091;28;19921;-61
2022/08/19 06:25:51;;;;;;;;;;;26.80;79.40;;;;;;5055408;28;19925;-79
2022/08/19 06:28:16;;;;;;;;;;;26.70;79.60;;;;;;5075294;28;20293;-75
2022/08/19 06:30:42;;;;;;;;;;;26.70;79.40;;;;;;5071938;28;20003;-62
2022/08/19 06:33:08;;;;;;;;;;;27.00;79.80;;;;;;5072992;28;20377;-61
2022/08/19 06:35:38;;;;;;;;;;;26.70;79.40;;;;;;5056405;28;19932;-64
2022/08/19 06:38:04;;;;;;;;;;;26.40;79.50;;;;;;5060924;28;20274;-79
2022/08/19 06:40:30;;;;;;;;;;;27.00;79.70;;;;;;5074880;28;20282;-62
2022/08/19 06:42:58;;;;;;;;;;;26.50;79.70;;;;;;5074343;28;19935;-63
2022/08/19 06:45:23;;;;;;;;;;;26.70;79.40;;;;;;5062689;28;19983;-79
2022/08/19 06:47:49;;;;;;;;;;;26.80;80.00;;;;;;5056282;28;19925;-62
2022/08/19 06:50:15;;;;;;;;;;;27.00;79.70;;;;;;5073617;28;20096;-66
2022/08/19 06:52:41;;;;;;;;;;;26.80;79.80;;;;;;5059332;28;20301;-62
2022/08/19 06:55:06;;;;;;;;;;;26.80;79.60;;;;;;5052989;28;19924;-61
2022/08/19 06:57:32;;;;;;;;;;;27.00;79.60;;;;;;5054816;28;19928;-65
2022/08/19 06:59:59;;;;;;;;;;;27.10;80.10;;;;;;5055583;28;20382;-62
2022/08/19 07:02:26;;;;;;;;;;;27.00;80.20;;;;;;5055423;28;19925;-62
2022/08/19 07:04:52;;;;;;;;;;;26.90;80.00;;;;;;5065071;28;20019;-63
2022/08/19 07:07:19;;;;;;;;;;;27.00;80.40;;;;;;5070294;28;20022;-62
2022/08/19 07:09:44;;;;;;;;;;;27.10;80.50;;;;;;5075503;28;19987;-63
2022/08/19 07:12:11;;;;;;;;;;;27.10;80.40;;;;;;5069093;28;19976;-62
2022/08/19 07:14:37;;;;;;;;;;;27.10;80.60;;;;;;5073635;28;19932;-62
2022/08/19 07:17:04;;;;;;;;;;;27.10;80.70;;;;;;5068303;28;19925;-62
2022/08/19 07:19:31;;;;;;;;;;;27.10;80.40;;;;;;5074615;28;20085;-62
2022/08/19 07:21:56;;;;;;;;;;;27.30;80.60;;;;;;5095521;28;19931;-61
2022/08/19 07:24:25;;;;;;;;;;;27.30;80.60;;;;;;5078542;28;19925;-62
2022/08/19 07:26:52;;;;;;;;;;;27.30;80.80;;;;;;5049449;28;19924;-64
2022/08/19 07:29:18;;;;;;;;;;;27.20;80.70;;;;;;5076579;28;19944;-65
2022/08/19 07:31:43;;;;;;;;;;;27.30;80.30;;;;;;5077460;28;19932;-61
2022/08/19 07:34:11;;;;;;;;;;;27.30;80.20;;;;;;5075286;28;19925;-61
2022/08/19 07:36:37;;;;;;;;;;;27.60;80.80;;;;;;5075819;28;19929;-62
2022/08/19 07:39:06;;;;;;;;;;;27.40;80.60;;;;;;5089507;28;19924;-61
2022/08/19 07:41:32;;;;;;;;;;;27.50;80.70;;;;;;5071270;28;19928;-62
2022/08/19 07:44:03;;;;;;;;;;;27.70;80.70;;;;;;5095048;28;19985;-62
2022/08/19 07:46:37;;;;;;;;;;;27.80;79.30;;;;;;5074676;28;19924;-62
2022/08/19 07:49:03;;;;;;;;;;;27.70;79.40;;;;;;5069338;28;20297;-78
2022/08/19 07:51:28;;;;;;;;;;;27.50;80.40;;;;;;5088016;28;19947;-62
2022/08/19 07:53:54;;;;;;;;;;;28.00;80.50;;;;;;5078801;28;19920;-62
2022/08/19 07:56:20;;;;;;;;;;;27.90;80.10;;;;;;5071801;28;19924;-66
2022/08/19 07:58:46;;;;;;;;;;;28.10;80.50;;;;;;5081825;28;19935;-63
2022/08/19 08:01:13;;;;;;;;;;;27.80;80.50;;;;;;5091246;28;20026;-64
2022/08/19 08:09:22;;;;;;;;;;;28.00;79.40;;;;;;5060340;28;19982;-62
2022/08/19 08:11:49;;;;;;;;;;;28.30;79.70;;;;;;5065349;28;20015;-62
2022/08/19 08:14:25;;;;;;;;;;;28.10;80.50;;;;;;5094413;28;19920;-67
2022/08/19 08:16:51;;;;;;;;;;;28.40;80.80;;;;;;5089523;28;19964;-82
2022/08/19 08:19:18;;;;;;;;;;;28.10;80.20;;;;;;5077000;28;20025;-68
2022/08/19 08:21:43;;;;;;;;;;;28.20;80.30;;;;;;5090026;28;20411;-62
2022/08/19 08:24:09;;;;;;;;;;;28.20;80.10;;;;;;5084966;28;19975;-62
2022/08/19 08:26:35;;;;;;;;;;;28.10;80.30;;;;;;5075133;28;20389;-64
2022/08/19 08:29:01;;;;;;;;;;;28.50;80.40;;;;;;5078558;28;19931;-62
2022/08/19 08:31:27;;;;;;;;;;;28.50;80.40;;;;;;5083175;28;19920;-64
2022/08/19 08:33:52;;;;;;;;;;;28.30;80.10;;;;;;5072063;28;19930;-82
2022/08/19 08:36:18;;;;;;;;;;;28.30;80.00;;;;;;5074821;28;19924;-62
2022/08/19 08:38:47;;;;;;;;;;;28.40;80.10;;;;;;5089393;28;20387;-62
2022/08/19 08:41:14;;;;;;;;;;;28.50;79.70;;;;;;5094271;28;20015;-62
2022/08/19 08:43:43;;;;;;;;;;;28.30;80.00;;;;;;5093334;28;19949;-68
2022/08/19 08:46:15;;;;;;;;;;;28.40;80.70;;;;;;5071216;28;19924;-70
2022/08/19 08:48:57;;;;;;;;;;;28.80;79.10;;;;;;5058979;28;20019;-70
2022/08/19 08:51:24;;;;;;;;;;;28.60;78.90;;;;;;5073053;28;19993;-62
2022/08/19 08:53:50;;;;;;;;;;;28.30;80.20;;;;;;5054111;28;20405;-64
2022/08/19 08:56:16;;;;;;;;;;;28.70;80.30;;;;;;5063852;28;19935;-61
2022/08/19 08:58:45;;;;;;;;;;;28.70;80.20;;;;;;5066154;28;20003;-61
2022/08/19 09:01:11;;;;;;;;;;;28.70;80.30;;;;;;5055015;28;20279;-64
2022/08/19 09:03:36;;;;;;;;;;;28.40;79.80;;;;;;5054568;28;20386;-62
2022/08/19 09:06:03;;;;;;;;;;;28.50;80.00;;;;;;5055698;28;19969;-67
2022/08/19 09:08:35;;;;;;;;;;;28.70;80.50;;;;;;5071827;28;20328;-62
2022/08/19 09:11:00;;;;;;;;;;;28.80;79.00;;;;;;5070415;28;19924;-62
2022/08/19 09:13:45;;;;;;;;;;;28.80;80.40;;;;;;5055090;28;19924;-76
2022/08/19 09:16:17;;;;;;;;;;;28.80;79.20;;;;;;5055358;28;20066;-62
2022/08/19 09:18:44;;;;;;;;;;;28.90;79.50;;;;;;5056288;28;19932;-78
2022/08/19 09:21:10;;;;;;;;;;;28.50;80.40;;;;;;5076239;28;20007;-78
2022/08/19 09:23:36;;;;;;;;;;;28.80;80.20;;;;;;5077373;28;20074;-62
2022/08/19 09:26:05;;;;;;;;;;;28.70;80.60;;;;;;5074935;28;19924;-63
2022/08/19 09:28:31;;;;;;;;;;;28.70;80.50;;;;;;5076733;28;19925;-62
2022/08/19 09:30:57;;;;;;;;;;;28.80;80.30;;;;;;5076803;28;19924;-62
2022/08/19 09:33:22;;;;;;;;;;;28.70;80.20;;;;;;5076080;28;20021;-62
2022/08/19 09:35:48;;;;;;;;;;;28.90;80.30;;;;;;5076198;28;19924;-62
2022/08/19 09:38:14;;;;;;;;;;;28.70;80.30;;;;;;5063991;28;19924;-62
2022/08/19 09:40:40;;;;;;;;;;;28.80;80.20;;;;;;5057443;28;20024;-61
2022/08/19 09:43:07;;;;;;;;;;;28.70;79.70;;;;;;5068148;28;20034;-62
2022/08/19 09:45:32;;;;;;;;;;;28.80;80.00;;;;;;5076994;28;19928;-61
2022/08/19 09:47:58;;;;;;;;;;;29.00;80.40;;;;;;5076631;28;19978;-61
2022/08/19 09:50:24;;;;;;;;;;;28.50;80.10;;;;;;5076986;28;19925;-61
2022/08/19 09:52:49;;;;;;;;;;;28.80;80.20;;;;;;5074824;28;19927;-61
2022/08/19 09:55:16;;;;;;;;;;;28.60;80.10;;;;;;5075889;28;20027;-61
2022/08/19 09:57:41;;;;;;;;;;;29.10;80.70;;;;;;5075710;28;19978;-62
2022/08/19 10:00:08;;;;;;;;;;;28.70;80.20;;;;;;5076928;28;19928;-62
2022/08/19 10:02:34;;;;;;;;;;;28.60;80.10;;;;;;5077045;28;19924;-61
2022/08/19 10:07:44;;;;;;;;;;;28.60;79.80;;;;;;5075343;28;20366;-63
2022/08/19 10:10:10;;;;;;;;;;;28.80;80.50;;;;;;5071659;28;19939;-64
2022/08/19 10:12:36;;;;;;;;;;;28.60;80.20;;;;;;5076460;28;19969;-79
2022/08/19 10:15:02;;;;;;;;;;;28.90;80.70;;;;;;5076579;28;19924;-62
2022/08/19 10:17:28;;;;;;;;;;;28.30;80.60;;;;;;5075298;28;19924;-62
2022/08/19 10:19:54;;;;;;;;;;;28.70;80.40;;;;;;5060281;28;20001;-61
2022/08/19 10:22:20;;;;;;;;;;;28.40;80.30;;;;;;5076352;28;19924;-61
2022/08/19 10:24:46;;;;;;;;;;;28.70;80.10;;;;;;5075527;28;19928;-62
2022/08/19 10:27:13;;;;;;;;;;;28.70;80.80;;;;;;5075679;28;19981;-63
2022/08/19 10:29:38;;;;;;;;;;;28.60;81.00;;;;;;5072840;28;19964;-62
2022/08/19 10:32:07;;;;;;;;;;;28.70;80.80;;;;;;5076176;28;20373;-65
2022/08/19 10:34:35;;;;;;;;;;;28.30;80.70;;;;;;5076709;28;20371;-62
2022/08/19 10:37:00;;;;;;;;;;;28.80;80.90;;;;;;5074660;28;20378;-76
2022/08/19 10:39:29;;;;;;;;;;;28.50;80.60;;;;;;5073963;28;19921;-75
2022/08/19 10:41:55;;;;;;;;;;;28.70;80.70;;;;;;5058049;28;19925;-70
2022/08/19 10:44:22;;;;;;;;;;;28.70;80.90;;;;;;5075973;28;19931;-61
2022/08/19 10:46:48;;;;;;;;;;;28.70;80.60;;;;;;5075436;28;19925;-61
2022/08/19 10:49:14;;;;;;;;;;;28.60;80.60;;;;;;5076195;28;19932;-61
2022/08/19 10:56:50;;;;;;;;;;;28.70;79.40;;;;;;5072554;28;19967;-61
2022/08/19 10:57:10;;;;;;;;;;;28.50;80.30;;;;;;5075386;28;20011;-62
2022/08/19 10:59:35;;;;;;;;;;;28.60;80.40;;;;;;5074866;28;20003;-61
2022/08/19 11:02:01;;;;;;;;;;;28.80;80.30;;;;;;5076300;28;19929;-61
2022/08/19 11:04:27;;;;;;;;;;;28.80;80.60;;;;;;5074562;28;19960;-61
2022/08/19 11:06:53;;;;;;;;;;;28.50;79.60;;;;;;5075469;28;19986;-61
2022/08/19 11:09:20;;;;;;;;;;;28.70;79.90;;;;;;5075404;28;19978;-62
2022/08/19 11:11:47;;;;;;;;;;;28.30;79.70;;;;;;5075718;28;20293;-62
2022/08/19 11:14:13;;;;;;;;;;;28.70;79.80;;;;;;5074632;28;19932;-62
2022/08/19 11:16:39;;;;;;;;;;;28.60;79.50;;;;;;5074348;28;20373;-61
2022/08/19 11:19:07;;;;;;;;;;;28.50;78.70;;;;;;5073557;28;19936;-61
2022/08/19 11:21:34;;;;;;;;;;;28.80;79.20;;;;;;5069490;28;19925;-61
2022/08/19 11:24:01;;;;;;;;;;;28.60;79.20;;;;;;5075093;28;20465;-62
2022/08/19 11:26:27;;;;;;;;;;;28.60;79.10;;;;;;5074173;28;20271;-61
2022/08/19 11:28:55;;;;;;;;;;;28.70;78.80;;;;;;5074729;28;19924;-61
2022/08/19 11:31:22;;;;;;;;;;;28.60;78.30;;;;;;5057417;28;20029;-61
2022/08/19 11:33:51;;;;;;;;;;;28.60;78.80;;;;;;5075317;28;19947;-61
2022/08/19 11:36:17;;;;;;;;;;;28.60;78.70;;;;;;5073650;28;20015;-61
2022/08/19 11:38:43;;;;;;;;;;;28.50;78.40;;;;;;5072042;28;19978;-78
2022/08/19 11:41:08;;;;;;;;;;;28.40;78.80;;;;;;5071529;28;19924;-77
2022/08/19 11:43:34;;;;;;;;;;;28.50;78.40;;;;;;5074012;28;19931;-77
2022/08/19 11:46:03;;;;;;;;;;;28.70;78.70;;;;;;5056022;28;19925;-63
2022/08/19 11:48:29;;;;;;;;;;;28.80;78.90;;;;;;5073689;28;20267;-79
2022/08/19 11:50:57;;;;;;;;;;;28.60;78.20;;;;;;5074212;28;19929;-80
2022/08/19 11:53:23;;;;;;;;;;;28.90;77.70;;;;;;5074157;28;19925;-73
2022/08/19 11:55:48;;;;;;;;;;;29.10;78.60;;;;;;5074755;28;19924;-62
2022/08/19 11:58:15;;;;;;;;;;;28.90;78.50;;;;;;5073717;28;19925;-62
2022/08/19 12:00:40;;;;;;;;;;;28.70;78.70;;;;;;5074510;28;19925;-62
2022/08/19 12:03:16;;;;;;;;;;;29.00;78.50;;;;;;5153900;27;19917;-61
2022/08/19 12:05:42;;;;;;;;;;;28.70;78.30;;;;;;5137669;27;20292;-61
2022/08/19 12:08:07;;;;;;;;;;;28.90;78.80;;;;;;5151757;27;19980;-61
2022/08/19 12:10:34;;;;;;;;;;;29.20;79.00;;;;;;5152788;27;19962;-61
2022/08/19 12:12:59;;;;;;;;;;;28.90;79.00;;;;;;5153017;27;19951;-61
2022/08/19 12:15:27;;;;;;;;;;;29.00;79.20;;;;;;5145614;27;20356;-61
2022/08/19 12:17:56;;;;;;;;;;;28.80;79.20;;;;;;5147538;27;19919;-61
2022/08/19 12:20:22;;;;;;;;;;;28.90;79.30;;;;;;5152546;27;19969;-61
2022/08/19 12:22:48;;;;;;;;;;;28.90;80.00;;;;;;5134018;27;19924;-61
2022/08/19 12:25:13;;;;;;;;;;;28.80;79.30;;;;;;5167897;27;20280;-61
2022/08/19 12:27:39;;;;;;;;;;;28.80;79.10;;;;;;5151693;27;19923;-61
2022/08/19 12:30:06;;;;;;;;;;;28.70;79.20;;;;;;5153271;27;19934;-61
2022/08/19 12:32:31;;;;;;;;;;;28.90;79.10;;;;;;5153007;27;19968;-61
2022/08/19 12:34:57;;;;;;;;;;;28.70;79.20;;;;;;5136047;27;20007;-61
2022/08/19 12:37:22;;;;;;;;;;;28.70;79.20;;;;;;5142867;27;19930;-61
2022/08/19 12:39:48;;;;;;;;;;;28.50;79.40;;;;;;5152523;27;19923;-61
2022/08/19 12:42:14;;;;;;;;;;;28.60;79.20;;;;;;5152691;27;20265;-61
2022/08/19 12:44:40;;;;;;;;;;;28.60;79.20;;;;;;5152426;27;20292;-61
2022/08/19 12:47:06;;;;;;;;;;;29.00;79.90;;;;;;5147981;27;19928;-61
2022/08/19 12:49:33;;;;;;;;;;;28.60;79.60;;;;;;5113349;28;20335;-60
2022/08/19 12:52:00;;;;;;;;;;;28.60;79.40;;;;;;5128970;27;19928;-60
2022/08/19 12:54:26;;;;;;;;;;;28.50;79.70;;;;;;5133828;27;19974;-62
2022/08/19 12:56:51;;;;;;;;;;;28.60;79.60;;;;;;5152268;27;19962;-61
2022/08/19 12:59:18;;;;;;;;;;;28.40;79.70;;;;;;5141588;27;20412;-61
2022/08/19 13:01:44;;;;;;;;;;;28.60;79.60;;;;;;5130771;28;19923;-61
2022/08/19 13:04:10;;;;;;;;;;;28.60;79.80;;;;;;5113032;28;20373;-61
2022/08/19 13:06:35;;;;;;;;;;;28.30;79.60;;;;;;5131386;28;20296;-61
2022/08/19 13:09:02;;;;;;;;;;;28.50;80.00;;;;;;5153888;27;20427;-61
2022/08/19 13:11:32;;;;;;;;;;;28.40;80.10;;;;;;5133196;27;20376;-61
2022/08/19 13:13:57;;;;;;;;;;;28.60;80.20;;;;;;5141378;27;19927;-61
2022/08/19 13:16:23;;;;;;;;;;;28.20;79.80;;;;;;5136832;27;20284;-61
2022/08/19 13:18:51;;;;;;;;;;;28.40;80.10;;;;;;5153820;27;19920;-60
2022/08/19 13:21:19;;;;;;;;;;;28.30;80.10;;;;;;5118434;27;20057;-61
2022/08/19 13:23:45;;;;;;;;;;;28.00;80.00;;;;;;5099019;28;19928;-61
2022/08/19 13:26:13;;;;;;;;;;;28.50;80.00;;;;;;5116706;27;19926;-61
2022/08/19 13:34:08;;;;;;;;;;;28.10;80.40;;;;;;5118298;27;20365;-62
2022/08/19 13:36:33;;;;;;;;;;;28.00;80.10;;;;;;5119103;27;19938;-76
2022/08/19 13:38:59;;;;;;;;;;;28.20;80.40;;;;;;5115984;27;19923;-74
2022/08/19 13:41:25;;;;;;;;;;;28.50;80.50;;;;;;5132832;27;19935;-61
2022/08/19 13:43:51;;;;;;;;;;;28.00;80.60;;;;;;5123895;27;19931;-61
2022/08/19 13:46:16;;;;;;;;;;;28.20;80.70;;;;;;5125595;27;19923;-63
2022/08/19 13:48:42;;;;;;;;;;;28.30;80.60;;;;;;5147531;27;19923;-66
2022/08/19 13:51:09;;;;;;;;;;;28.30;81.00;;;;;;5106634;28;19931;-75
2022/08/19 13:53:38;;;;;;;;;;;28.40;81.20;;;;;;5116821;28;20377;-62
2022/08/19 13:56:07;;;;;;;;;;;28.10;81.10;;;;;;5117260;27;19924;-61
2022/08/19 13:58:33;;;;;;;;;;;28.20;79.70;;;;;;5120596;27;19919;-61
2022/08/19 14:00:59;;;;;;;;;;;28.10;80.70;;;;;;5106691;27;19984;-62
2022/08/19 14:03:25;;;;;;;;;;;28.20;80.80;;;;;;5120537;27;19975;-63
2022/08/19 14:05:51;;;;;;;;;;;28.10;81.00;;;;;;5116569;28;19924;-61
2022/08/19 14:08:16;;;;;;;;;;;28.10;80.50;;;;;;5113115;27;20271;-63
2022/08/19 14:10:44;;;;;;;;;;;28.00;80.60;;;;;;5134848;27;19923;-62
2022/08/19 14:13:09;;;;;;;;;;;27.90;80.80;;;;;;5099746;28;19946;-61
2022/08/19 14:15:36;;;;;;;;;;;28.10;80.80;;;;;;5098410;28;19928;-61
2022/08/19 14:18:02;;;;;;;;;;;28.00;81.00;;;;;;5098596;28;19985;-61
2022/08/19 14:20:28;;;;;;;;;;;28.00;80.80;;;;;;5116042;28;19974;-61
2022/08/19 14:22:54;;;;;;;;;;;27.80;80.70;;;;;;5122772;27;19931;-61
2022/08/19 14:25:21;;;;;;;;;;;27.80;80.60;;;;;;5117220;27;19923;-64
2022/08/19 14:27:47;;;;;;;;;;;28.20;81.30;;;;;;5115582;27;20403;-61
2022/08/19 14:30:14;;;;;;;;;;;28.00;80.80;;;;;;5136191;27;19924;-61
2022/08/19 14:32:39;;;;;;;;;;;28.40;81.40;;;;;;5111145;28;19930;-61
2022/08/19 14:35:07;;;;;;;;;;;28.00;80.70;;;;;;5115993;28;20015;-61
2022/08/19 14:37:33;;;;;;;;;;;28.20;81.10;;;;;;5115946;28;20343;-61
2022/08/19 14:39:59;;;;;;;;;;;27.90;81.40;;;;;;5145617;27;19976;-61